createdAt,value
2022-11-24T00:02:56.610Z,47.09
2022-11-24T00:08:18.523Z,47.16
2022-11-24T00:13:40.578Z,47.08
2022-11-24T00:19:04.377Z,47.08
2022-11-24T00:24:26.002Z,46.83
2022-11-24T00:29:47.640Z,47.14
2022-11-24T00:35:09.389Z,46.90
2022-11-24T00:40:34.987Z,47.03
2022-11-24T00:45:57.154Z,46.48
2022-11-24T00:51:21.369Z,46.50
2022-11-24T00:56:43.205Z,46.79
2022-11-24T01:02:04.922Z,46.45
2022-11-24T01:07:26.724Z,46.27
2022-11-24T01:12:48.459Z,46.43
2022-11-24T01:18:10.174Z,46.66
2022-11-24T01:23:32.668Z,46.47
2022-11-24T01:28:56.368Z,46.48
2022-11-24T01:34:18.056Z,46.51
2022-11-24T01:39:39.815Z,46.47
2022-11-24T01:45:29.994Z,46.11
2022-11-24T01:50:57.758Z,45.97
2022-11-24T01:56:20.112Z,46.42
2022-11-24T02:01:41.872Z,46.02
2022-11-24T02:07:06.977Z,46.30
2022-11-24T02:12:28.968Z,46.09
2022-11-24T02:17:50.665Z,45.91
2022-11-24T02:23:24.996Z,46.21
2022-11-24T02:28:47.602Z,45.90
2022-11-24T02:34:09.251Z,46.17
2022-11-24T02:39:30.939Z,46.09
2022-11-24T02:44:57.568Z,46.12
2022-11-24T02:50:19.644Z,46.29
2022-11-24T02:55:41.573Z,46.05
2022-11-24T03:01:03.427Z,45.88
2022-11-24T03:06:25.113Z,45.92
2022-11-24T03:11:46.843Z,45.80
2022-11-24T03:17:08.684Z,46.02
2022-11-24T03:22:30.339Z,45.47
2022-11-24T03:27:52.076Z,45.89
2022-11-24T03:33:13.732Z,45.97
2022-11-24T03:38:35.582Z,45.53
2022-11-24T03:43:57.287Z,45.92
2022-11-24T03:49:19.102Z,45.61
2022-11-24T03:54:41.010Z,45.81
2022-11-24T04:00:02.783Z,45.62
2022-11-24T04:05:25.404Z,45.44
2022-11-24T04:10:51.408Z,45.63
2022-11-24T04:16:13.215Z,45.55
2022-11-24T04:21:35.025Z,45.61
2022-11-24T04:26:56.668Z,45.87
2022-11-24T04:32:18.554Z,45.82
2022-11-24T04:37:40.826Z,45.70
2022-11-24T04:43:02.508Z,45.76
2022-11-24T04:48:24.182Z,45.65
2022-11-24T04:53:46.087Z,45.34
2022-11-24T04:59:08.609Z,45.24
2022-11-24T05:04:30.551Z,45.18
2022-11-24T05:10:10.684Z,45.22
2022-11-24T05:15:32.416Z,45.49
2022-11-24T05:20:54.095Z,45.46
2022-11-24T05:26:15.792Z,45.42
2022-11-24T05:31:37.574Z,45.39
2022-11-24T05:37:03.217Z,44.93
2022-11-24T05:42:47.809Z,45.06
2022-11-24T05:48:15.249Z,45.22
2022-11-24T05:53:36.907Z,45.04
2022-11-24T05:58:58.549Z,45.21
2022-11-24T06:04:20.192Z,45.07
2022-11-24T06:09:43.203Z,44.94
2022-11-24T06:15:05.364Z,45.08
2022-11-24T06:20:31.320Z,44.63
2022-11-24T06:25:54.387Z,44.91
2022-11-24T06:31:16.173Z,45.13
2022-11-24T06:36:38.758Z,44.55
2022-11-24T06:42:00.604Z,44.40
2022-11-24T06:47:22.241Z,44.55
2022-11-24T06:52:43.880Z,44.32
2022-11-24T06:58:05.563Z,44.36
2022-11-24T07:03:27.549Z,44.46
2022-11-24T07:08:50.145Z,44.10
2022-11-24T07:14:11.882Z,44.10
2022-11-24T07:19:33.629Z,44.28
2022-11-24T07:24:55.366Z,43.96
2022-11-24T07:30:17.326Z,44.12
2022-11-24T07:35:39.008Z,43.86
2022-11-24T07:41:02.451Z,43.20
2022-11-24T07:46:24.259Z,43.04
2022-11-24T07:51:46.132Z,42.42
2022-11-24T07:57:07.768Z,42.83
2022-11-24T08:02:29.427Z,42.77
2022-11-24T08:07:51.125Z,43.06
2022-11-24T08:13:13.122Z,42.85
2022-11-24T08:18:35.758Z,43.10
2022-11-24T08:23:58.040Z,42.75
2022-11-24T08:29:19.751Z,43.19
2022-11-24T08:34:41.401Z,43.05
2022-11-24T08:40:03.184Z,43.10
2022-11-24T08:45:25.796Z,43.40
2022-11-24T08:50:47.570Z,42.97
2022-11-24T08:56:11.175Z,43.44
2022-11-24T09:01:33.002Z,43.07
2022-11-24T09:06:54.876Z,43.05
2022-11-24T09:12:16.707Z,43.31
2022-11-24T09:17:38.439Z,43.20
2022-11-24T09:23:00.171Z,42.99
2022-11-24T09:28:21.850Z,42.97
2022-11-24T09:33:44.690Z,42.85
2022-11-24T09:39:06.544Z,42.85
2022-11-24T09:44:49.568Z,43.13
2022-11-24T09:50:13.873Z,43.26
2022-11-24T09:55:38.636Z,43.00
2022-11-24T10:01:00.579Z,43.24
2022-11-24T10:06:34.831Z,43.00
2022-11-24T10:12:16.575Z,42.86
2022-11-24T10:18:03.157Z,42.87
2022-11-24T10:23:44.551Z,43.24
2022-11-24T10:29:30.673Z,43.08
2022-11-24T10:34:54.289Z,43.11
2022-11-24T10:40:55.501Z,43.11
2022-11-24T10:46:19.814Z,43.52
2022-11-24T10:52:01.544Z,43.36
2022-11-24T10:57:34.591Z,43.33
2022-11-24T11:03:19.733Z,43.05
2022-11-24T11:08:41.448Z,43.37
2022-11-24T11:14:08.998Z,43.38
2022-11-24T11:19:50.933Z,43.32
2022-11-24T11:25:13.555Z,43.57
2022-11-24T11:36:17.317Z,43.43
2022-11-24T11:41:45.033Z,43.30
2022-11-24T11:47:27.955Z,43.60
2022-11-24T11:53:27.371Z,43.79
2022-11-24T11:58:51.937Z,43.62
2022-11-24T12:04:21.396Z,43.73
2022-11-24T12:09:55.291Z,43.59
2022-11-24T12:15:48.123Z,44.05
2022-11-24T12:21:27.021Z,43.69
2022-11-24T12:26:52.564Z,44.21
2022-11-24T12:32:26.048Z,44.15
2022-11-24T12:37:58.326Z,44.13
2022-11-24T12:43:39.020Z,44.03
2022-11-24T12:49:08.811Z,44.10
2022-11-24T12:54:38.838Z,44.30
2022-11-24T13:00:16.851Z,44.41
2022-11-24T13:06:01.389Z,44.31
2022-11-24T13:11:23.163Z,44.69
2022-11-24T13:17:30.042Z,44.41
2022-11-24T13:22:40.244Z,44.83
2022-11-24T13:28:04.096Z,44.88
2022-11-24T13:33:29.965Z,44.58
2022-11-24T13:38:53.071Z,44.85
2022-11-24T13:44:15.004Z,44.74
2022-11-24T13:49:48.877Z,44.69
2022-11-24T13:55:13.637Z,45.05
2022-11-24T14:00:58.451Z,45.02
2022-11-24T14:06:35.854Z,45.24
2022-11-24T14:12:03.847Z,44.75
2022-11-24T14:17:28.640Z,44.76
2022-11-24T14:22:51.245Z,44.87
2022-11-24T14:28:22.850Z,45.06
2022-11-24T14:33:44.526Z,44.98
2022-11-24T14:39:06.838Z,45.09
2022-11-24T14:44:31.560Z,44.94
2022-11-24T14:49:54.746Z,44.88
2022-11-24T14:55:30.869Z,44.85
2022-11-24T15:01:20.635Z,44.15
2022-11-24T15:06:44.335Z,44.36
2022-11-24T15:12:17.006Z,43.99
2022-11-24T15:17:47.413Z,44.22
2022-11-24T15:23:25.408Z,43.85
2022-11-24T15:28:47.279Z,44.07
2022-11-24T15:34:14.309Z,44.12
2022-11-24T15:39:36.181Z,43.92
2022-11-24T15:44:57.822Z,44.09
2022-11-24T15:50:20.078Z,43.84
2022-11-24T15:55:41.747Z,43.79
2022-11-24T16:01:03.503Z,43.47
2022-11-24T16:06:25.758Z,43.23
2022-11-24T16:11:47.532Z,43.30
2022-11-24T16:17:09.137Z,43.55
2022-11-24T16:22:30.796Z,43.68
2022-11-24T16:27:52.886Z,43.51
2022-11-24T16:33:14.580Z,43.87
2022-11-24T16:38:36.240Z,43.91
2022-11-24T16:43:58.099Z,43.99
2022-11-24T16:49:19.985Z,44.55
2022-11-24T16:54:41.850Z,44.90
2022-11-24T17:00:05.492Z,44.93
2022-11-24T17:05:27.747Z,44.89
2022-11-24T17:10:49.435Z,45.15
2022-11-24T17:16:14.178Z,44.87
2022-11-24T17:21:35.986Z,44.66
2022-11-24T17:26:57.614Z,44.69
2022-11-24T17:32:19.298Z,44.63
2022-11-24T17:37:40.998Z,44.54
2022-11-24T17:43:02.893Z,44.34
2022-11-24T17:48:25.035Z,44.24
2022-11-24T17:53:49.442Z,43.76
2022-11-24T17:59:11.225Z,43.73
2022-11-24T18:04:34.082Z,43.59
2022-11-24T18:09:55.897Z,43.76
2022-11-24T18:15:17.692Z,43.94
2022-11-24T18:20:42.298Z,43.78
2022-11-24T18:26:05.755Z,43.71
2022-11-24T18:31:27.601Z,43.89
2022-11-24T18:36:52.256Z,44.35
2022-11-24T18:42:14.271Z,44.14
2022-11-24T18:47:35.920Z,44.43
2022-11-24T18:52:57.769Z,44.57
2022-11-24T18:58:22.148Z,44.47
2022-11-24T19:03:48.736Z,44.43
2022-11-24T19:09:18.990Z,44.40
2022-11-24T19:14:40.736Z,44.68
2022-11-24T19:20:02.806Z,44.11
2022-11-24T19:25:24.479Z,43.95
2022-11-24T19:30:46.234Z,44.06
2022-11-24T19:36:13.836Z,43.72
2022-11-24T19:41:35.633Z,43.37
2022-11-24T19:46:57.278Z,43.56
2022-11-24T19:52:18.971Z,43.67
2022-11-24T19:57:40.628Z,43.71
2022-11-24T20:03:02.369Z,43.69
2022-11-24T20:08:24.059Z,43.71
2022-11-24T20:13:47.212Z,43.76
2022-11-24T20:19:13.282Z,43.47
2022-11-24T20:24:35.057Z,43.63
2022-11-24T20:29:57.021Z,43.71
2022-11-24T20:35:18.983Z,43.19
2022-11-24T20:40:43.775Z,43.18
2022-11-24T20:46:08.654Z,43.71
2022-11-24T20:51:34.003Z,43.61
2022-11-24T20:56:55.644Z,43.64
2022-11-24T21:02:17.392Z,43.54
2022-11-24T21:07:39.131Z,43.25
2022-11-24T21:13:00.867Z,43.25
2022-11-24T21:18:22.530Z,43.30
2022-11-24T21:23:47.295Z,43.52
2022-11-24T21:29:11.668Z,43.21
2022-11-24T21:34:33.627Z,43.60
2022-11-24T21:39:55.420Z,43.61
2022-11-24T21:45:17.201Z,43.60
2022-11-24T21:50:39.074Z,43.85
2022-11-24T21:56:02.815Z,43.87
2022-11-24T22:01:28.243Z,43.64
2022-11-24T22:06:50.011Z,43.85
2022-11-24T22:12:11.666Z,44.00
2022-11-24T22:17:33.302Z,43.58
2022-11-24T22:22:55.022Z,43.65
2022-11-24T22:28:16.663Z,43.63
2022-11-24T22:33:38.983Z,44.04
2022-11-24T22:39:05.791Z,43.60
2022-11-24T22:44:27.421Z,43.58
2022-11-24T22:49:49.187Z,43.91
2022-11-24T22:55:10.818Z,43.64
2022-11-24T23:00:32.459Z,43.56
2022-11-24T23:05:54.279Z,43.94
2022-11-24T23:11:25.850Z,43.96
2022-11-24T23:16:50.950Z,43.85
2022-11-24T23:22:12.650Z,43.50
2022-11-24T23:27:34.586Z,43.80
2022-11-24T23:32:56.231Z,43.96
2022-11-24T23:38:18.041Z,43.60
2022-11-24T23:43:41.933Z,43.87
2022-11-24T23:49:03.982Z,43.80
2022-11-24T23:54:25.619Z,44.09
2022-11-24T23:59:47.273Z,43.78
